sensor_id;sensor_type;location;lat;lon;timestamp;temperature;humidity
67750;DHT22;54550;48.838;8.828;2023-09-07T00:02:20;13.70;99.90
67750;DHT22;54550;48.838;8.828;2023-09-07T00:04:45;13.70;99.90
67750;DHT22;54550;48.838;8.828;2023-09-07T00:07:11;13.50;99.90
67750;DHT22;54550;48.838;8.828;2023-09-07T00:09:36;13.40;99.90
67750;DHT22;54550;48.838;8.828;2023-09-07T00:12:02;13.30;99.90
67750;DHT22;54550;48.838;8.828;2023-09-07T00:14:28;13.20;99.90
67750;DHT22;54550;48.838;8.828;2023-09-07T00:16:53;13.10;99.90
67750;DHT22;54550;48.838;8.828;2023-09-07T00:19:19;13.00;99.90
67750;DHT22;54550;48.838;8.828;2023-09-07T00:21:44;13.00;99.90
67750;DHT22;54550;48.838;8.828;2023-09-07T00:24:10;13.00;99.90
67750;DHT22;54550;48.838;8.828;2023-09-07T00:26:35;12.80;99.90
67750;DHT22;54550;48.838;8.828;2023-09-07T00:29:01;12.80;99.90
67750;DHT22;54550;48.838;8.828;2023-09-07T00:31:26;12.70;99.90
67750;DHT22;54550;48.838;8.828;2023-09-07T00:33:52;12.60;99.90
67750;DHT22;54550;48.838;8.828;2023-09-07T00:36:18;12.60;99.90
67750;DHT22;54550;48.838;8.828;2023-09-07T00:38:43;12.50;99.90
67750;DHT22;54550;48.838;8.828;2023-09-07T00:41:09;12.50;99.90
67750;DHT22;54550;48.838;8.828;2023-09-07T00:43:35;12.50;99.90
67750;DHT22;54550;48.838;8.828;2023-09-07T00:46:01;12.40;99.90
67750;DHT22;54550;48.838;8.828;2023-09-07T00:48:27;12.30;99.90
67750;DHT22;54550;48.838;8.828;2023-09-07T00:50:53;12.30;99.90
67750;DHT22;54550;48.838;8.828;2023-09-07T00:53:19;12.20;99.90
67750;DHT22;54550;48.838;8.828;2023-09-07T00:55:45;12.20;99.90
67750;DHT22;54550;48.838;8.828;2023-09-07T00:58:11;12.20;99.90
67750;DHT22;54550;48.838;8.828;2023-09-07T01:00:37;12.20;99.90
67750;DHT22;54550;48.838;8.828;2023-09-07T01:03:03;12.20;99.90
67750;DHT22;54550;48.838;8.828;2023-09-07T01:08:17;12.30;99.90
67750;DHT22;54550;48.838;8.828;2023-09-07T01:10:44;12.30;99.90
67750;DHT22;54550;48.838;8.828;2023-09-07T01:13:10;12.30;99.90
67750;DHT22;54550;48.838;8.828;2023-09-07T01:15:36;12.40;99.90
67750;DHT22;54550;48.838;8.828;2023-09-07T01:18:03;12.60;99.90
67750;DHT22;54550;48.838;8.828;2023-09-07T01:20:30;12.70;99.90
67750;DHT22;54550;48.838;8.828;2023-09-07T01:22:57;12.80;99.90
67750;DHT22;54550;48.838;8.828;2023-09-07T01:25:23;12.80;99.90
67750;DHT22;54550;48.838;8.828;2023-09-07T01:27:49;12.80;99.90
67750;DHT22;54550;48.838;8.828;2023-09-07T01:30:17;12.70;99.90
67750;DHT22;54550;48.838;8.828;2023-09-07T01:32:44;12.60;99.90
67750;DHT22;54550;48.838;8.828;2023-09-07T01:35:11;12.40;99.90
67750;DHT22;54550;48.838;8.828;2023-09-07T01:37:37;12.40;99.90
67750;DHT22;54550;48.838;8.828;2023-09-07T01:40:03;12.50;99.90
67750;DHT22;54550;48.838;8.828;2023-09-07T01:42:33;12.50;99.90
67750;DHT22;54550;48.838;8.828;2023-09-07T01:44:58;12.70;99.90
67750;DHT22;54550;48.838;8.828;2023-09-07T01:47:24;12.70;99.90
67750;DHT22;54550;48.838;8.828;2023-09-07T01:49:52;12.70;99.90
67750;DHT22;54550;48.838;8.828;2023-09-07T01:52:18;12.70;99.90
67750;DHT22;54550;48.838;8.828;2023-09-07T01:54:44;12.70;99.90
67750;DHT22;54550;48.838;8.828;2023-09-07T01:57:09;12.60;99.90
67750;DHT22;54550;48.838;8.828;2023-09-07T01:59:35;12.60;99.90
67750;DHT22;54550;48.838;8.828;2023-09-07T02:02:00;12.50;99.90
67750;DHT22;54550;48.838;8.828;2023-09-07T02:04:26;12.40;99.90
67750;DHT22;54550;48.838;8.828;2023-09-07T02:06:51;12.30;99.90
67750;DHT22;54550;48.838;8.828;2023-09-07T02:09:17;12.20;99.90
67750;DHT22;54550;48.838;8.828;2023-09-07T02:11:42;12.20;99.90
67750;DHT22;54550;48.838;8.828;2023-09-07T02:14:08;12.10;99.90
67750;DHT22;54550;48.838;8.828;2023-09-07T02:16:34;12.00;99.90
67750;DHT22;54550;48.838;8.828;2023-09-07T02:19:04;11.90;99.90
67750;DHT22;54550;48.838;8.828;2023-09-07T02:21:30;11.90;99.90
67750;DHT22;54550;48.838;8.828;2023-09-07T02:23:55;11.90;99.90
67750;DHT22;54550;48.838;8.828;2023-09-07T02:26:21;11.80;99.90
67750;DHT22;54550;48.838;8.828;2023-09-07T02:28:46;11.70;99.90
67750;DHT22;54550;48.838;8.828;2023-09-07T02:31:12;11.70;99.90
67750;DHT22;54550;48.838;8.828;2023-09-07T02:33:38;11.60;99.90
67750;DHT22;54550;48.838;8.828;2023-09-07T02:36:04;11.60;99.90
67750;DHT22;54550;48.838;8.828;2023-09-07T02:38:30;11.50;99.90
67750;DHT22;54550;48.838;8.828;2023-09-07T02:40:56;11.50;99.90
67750;DHT22;54550;48.838;8.828;2023-09-07T02:43:22;11.40;99.90
67750;DHT22;54550;48.838;8.828;2023-09-07T02:45:49;11.30;99.90
67750;DHT22;54550;48.838;8.828;2023-09-07T02:48:15;11.30;99.90
67750;DHT22;54550;48.838;8.828;2023-09-07T02:50:41;11.30;99.90
67750;DHT22;54550;48.838;8.828;2023-09-07T02:53:08;11.20;99.90
67750;DHT22;54550;48.838;8.828;2023-09-07T02:55:33;11.30;99.90
67750;DHT22;54550;48.838;8.828;2023-09-07T02:58:02;11.20;99.90
67750;DHT22;54550;48.838;8.828;2023-09-07T03:00:28;11.20;99.90
67750;DHT22;54550;48.838;8.828;2023-09-07T03:02:54;11.30;99.90
67750;DHT22;54550;48.838;8.828;2023-09-07T03:05:19;11.30;99.90
67750;DHT22;54550;48.838;8.828;2023-09-07T03:07:46;11.50;99.90
67750;DHT22;54550;48.838;8.828;2023-09-07T03:10:12;11.50;99.90
67750;DHT22;54550;48.838;8.828;2023-09-07T03:12:38;11.50;99.90
67750;DHT22;54550;48.838;8.828;2023-09-07T03:15:04;11.40;99.90
67750;DHT22;54550;48.838;8.828;2023-09-07T03:17:30;11.40;99.90
67750;DHT22;54550;48.838;8.828;2023-09-07T03:19:56;11.30;99.90
67750;DHT22;54550;48.838;8.828;2023-09-07T03:22:23;11.30;99.90
67750;DHT22;54550;48.838;8.828;2023-09-07T03:24:50;11.30;99.90
67750;DHT22;54550;48.838;8.828;2023-09-07T03:27:16;11.30;99.90
67750;DHT22;54550;48.838;8.828;2023-09-07T03:29:44;11.30;99.90
67750;DHT22;54550;48.838;8.828;2023-09-07T03:32:09;11.30;99.90
67750;DHT22;54550;48.838;8.828;2023-09-07T03:34:35;11.30;99.90
67750;DHT22;54550;48.838;8.828;2023-09-07T03:37:00;11.30;99.90
67750;DHT22;54550;48.838;8.828;2023-09-07T03:39:26;11.30;99.90
67750;DHT22;54550;48.838;8.828;2023-09-07T03:41:51;11.30;99.90
67750;DHT22;54550;48.838;8.828;2023-09-07T03:44:18;11.30;99.90
67750;DHT22;54550;48.838;8.828;2023-09-07T03:46:43;11.20;99.90
67750;DHT22;54550;48.838;8.828;2023-09-07T03:49:09;11.20;99.90
67750;DHT22;54550;48.838;8.828;2023-09-07T03:51:34;11.20;99.90
67750;DHT22;54550;48.838;8.828;2023-09-07T03:54:00;11.20;99.90
67750;DHT22;54550;48.838;8.828;2023-09-07T03:56:26;11.10;99.90
67750;DHT22;54550;48.838;8.828;2023-09-07T03:58:51;11.10;99.90
67750;DHT22;54550;48.838;8.828;2023-09-07T04:01:17;11.10;99.90
67750;DHT22;54550;48.838;8.828;2023-09-07T04:03:43;11.00;99.90
67750;DHT22;54550;48.838;8.828;2023-09-07T04:06:08;11.00;99.90
67750;DHT22;54550;48.838;8.828;2023-09-07T04:08:35;11.10;99.90
67750;DHT22;54550;48.838;8.828;2023-09-07T04:11:05;11.10;99.90
67750;DHT22;54550;48.838;8.828;2023-09-07T04:13:31;11.00;99.90
67750;DHT22;54550;48.838;8.828;2023-09-07T04:15:56;11.00;99.90
67750;DHT22;54550;48.838;8.828;2023-09-07T04:18:22;11.20;99.90
67750;DHT22;54550;48.838;8.828;2023-09-07T04:20:47;11.30;99.90
67750;DHT22;54550;48.838;8.828;2023-09-07T04:23:13;11.50;99.90
67750;DHT22;54550;48.838;8.828;2023-09-07T04:25:39;11.70;99.90
67750;DHT22;54550;48.838;8.828;2023-09-07T04:28:05;11.80;99.90
67750;DHT22;54550;48.838;8.828;2023-09-07T04:30:33;11.80;99.90
67750;DHT22;54550;48.838;8.828;2023-09-07T04:32:58;11.80;99.90
67750;DHT22;54550;48.838;8.828;2023-09-07T04:35:29;11.70;99.90
67750;DHT22;54550;48.838;8.828;2023-09-07T04:37:55;11.50;99.90
67750;DHT22;54550;48.838;8.828;2023-09-07T04:40:22;11.50;99.90
67750;DHT22;54550;48.838;8.828;2023-09-07T04:42:47;11.60;99.90
67750;DHT22;54550;48.838;8.828;2023-09-07T04:45:13;11.60;99.90
67750;DHT22;54550;48.838;8.828;2023-09-07T04:47:38;11.70;99.90
67750;DHT22;54550;48.838;8.828;2023-09-07T04:50:04;11.60;99.90
67750;DHT22;54550;48.838;8.828;2023-09-07T04:52:31;11.50;99.90
67750;DHT22;54550;48.838;8.828;2023-09-07T04:54:57;11.50;99.90
67750;DHT22;54550;48.838;8.828;2023-09-07T04:57:22;11.40;99.90
67750;DHT22;54550;48.838;8.828;2023-09-07T04:59:48;11.40;99.90
67750;DHT22;54550;48.838;8.828;2023-09-07T05:02:14;11.30;99.90
67750;DHT22;54550;48.838;8.828;2023-09-07T05:04:39;11.40;99.90
67750;DHT22;54550;48.838;8.828;2023-09-07T05:07:05;11.40;99.90
67750;DHT22;54550;48.838;8.828;2023-09-07T05:09:31;11.40;99.90
67750;DHT22;54550;48.838;8.828;2023-09-07T05:11:57;11.40;99.90
67750;DHT22;54550;48.838;8.828;2023-09-07T05:14:25;11.40;99.90
67750;DHT22;54550;48.838;8.828;2023-09-07T05:16:51;11.50;99.90
67750;DHT22;54550;48.838;8.828;2023-09-07T05:19:16;11.50;99.90
67750;DHT22;54550;48.838;8.828;2023-09-07T05:21:42;11.50;99.90
67750;DHT22;54550;48.838;8.828;2023-09-07T05:24:08;11.60;99.90
67750;DHT22;54550;48.838;8.828;2023-09-07T05:26:33;11.70;99.90
67750;DHT22;54550;48.838;8.828;2023-09-07T05:28:59;11.80;99.90
67750;DHT22;54550;48.838;8.828;2023-09-07T05:31:25;11.90;99.90
67750;DHT22;54550;48.838;8.828;2023-09-07T05:33:50;12.20;99.90
67750;DHT22;54550;48.838;8.828;2023-09-07T05:36:18;12.40;99.90
67750;DHT22;54550;48.838;8.828;2023-09-07T05:38:43;12.60;99.90
67750;DHT22;54550;48.838;8.828;2023-09-07T05:41:09;12.80;99.90
67750;DHT22;54550;48.838;8.828;2023-09-07T05:43:35;13.00;99.90
67750;DHT22;54550;48.838;8.828;2023-09-07T05:46:01;13.50;99.90
67750;DHT22;54550;48.838;8.828;2023-09-07T05:48:27;14.10;99.90
67750;DHT22;54550;48.838;8.828;2023-09-07T05:50:52;14.80;99.90
67750;DHT22;54550;48.838;8.828;2023-09-07T05:53:21;15.50;99.90
67750;DHT22;54550;48.838;8.828;2023-09-07T05:55:46;15.60;99.90
67750;DHT22;54550;48.838;8.828;2023-09-07T05:58:14;15.30;99.90
67750;DHT22;54550;48.838;8.828;2023-09-07T06:00:40;15.10;99.90
67750;DHT22;54550;48.838;8.828;2023-09-07T06:03:07;14.80;99.90
67750;DHT22;54550;48.838;8.828;2023-09-07T06:05:37;14.60;99.90
67750;DHT22;54550;48.838;8.828;2023-09-07T06:08:04;14.40;99.90
67750;DHT22;54550;48.838;8.828;2023-09-07T06:10:31;14.40;99.90
67750;DHT22;54550;48.838;8.828;2023-09-07T06:12:57;14.40;99.90
67750;DHT22;54550;48.838;8.828;2023-09-07T06:15:23;14.50;99.90
67750;DHT22;54550;48.838;8.828;2023-09-07T06:17:49;14.60;99.90
67750;DHT22;54550;48.838;8.828;2023-09-07T06:20:16;14.60;99.90
67750;DHT22;54550;48.838;8.828;2023-09-07T06:22:41;14.70;99.90
67750;DHT22;54550;48.838;8.828;2023-09-07T06:25:07;14.70;99.90
67750;DHT22;54550;48.838;8.828;2023-09-07T06:27:33;14.70;99.90
67750;DHT22;54550;48.838;8.828;2023-09-07T06:29:59;14.90;99.90
67750;DHT22;54550;48.838;8.828;2023-09-07T06:32:24;14.90;99.90
67750;DHT22;54550;48.838;8.828;2023-09-07T06:34:50;15.00;99.90
67750;DHT22;54550;48.838;8.828;2023-09-07T06:37:15;15.00;99.90
67750;DHT22;54550;48.838;8.828;2023-09-07T06:39:41;15.10;99.90
67750;DHT22;54550;48.838;8.828;2023-09-07T06:42:09;15.20;99.90
67750;DHT22;54550;48.838;8.828;2023-09-07T06:44:38;15.40;99.90
67750;DHT22;54550;48.838;8.828;2023-09-07T06:47:03;15.40;99.90
67750;DHT22;54550;48.838;8.828;2023-09-07T06:49:29;15.50;99.90
67750;DHT22;54550;48.838;8.828;2023-09-07T06:51:56;15.60;99.90
67750;DHT22;54550;48.838;8.828;2023-09-07T06:54:21;15.70;99.90
67750;DHT22;54550;48.838;8.828;2023-09-07T06:56:47;15.90;99.90
67750;DHT22;54550;48.838;8.828;2023-09-07T06:59:13;15.90;99.90
67750;DHT22;54550;48.838;8.828;2023-09-07T07:01:39;16.00;99.90
67750;DHT22;54550;48.838;8.828;2023-09-07T07:04:05;16.00;99.90
67750;DHT22;54550;48.838;8.828;2023-09-07T07:06:30;16.10;99.90
67750;DHT22;54550;48.838;8.828;2023-09-07T07:08:56;16.20;99.90
67750;DHT22;54550;48.838;8.828;2023-09-07T07:11:22;16.30;99.90
67750;DHT22;54550;48.838;8.828;2023-09-07T07:13:47;16.40;99.90
67750;DHT22;54550;48.838;8.828;2023-09-07T07:16:13;16.60;99.90
67750;DHT22;54550;48.838;8.828;2023-09-07T07:18:39;16.70;99.90
67750;DHT22;54550;48.838;8.828;2023-09-07T07:21:05;16.90;99.90
67750;DHT22;54550;48.838;8.828;2023-09-07T07:23:30;17.10;99.90
67750;DHT22;54550;48.838;8.828;2023-09-07T07:25:56;17.20;99.90
67750;DHT22;54550;48.838;8.828;2023-09-07T07:28:22;17.50;99.90
67750;DHT22;54550;48.838;8.828;2023-09-07T07:30:48;18.00;99.90
67750;DHT22;54550;48.838;8.828;2023-09-07T07:33:14;19.10;99.90
67750;DHT22;54550;48.838;8.828;2023-09-07T07:35:39;19.90;99.90
67750;DHT22;54550;48.838;8.828;2023-09-07T07:38:05;20.70;99.90
67750;DHT22;54550;48.838;8.828;2023-09-07T07:40:31;21.50;99.90
67750;DHT22;54550;48.838;8.828;2023-09-07T07:42:57;22.50;99.90
67750;DHT22;54550;48.838;8.828;2023-09-07T07:45:22;23.00;99.90
67750;DHT22;54550;48.838;8.828;2023-09-07T07:47:50;23.60;99.90
67750;DHT22;54550;48.838;8.828;2023-09-07T07:50:16;23.60;99.90
67750;DHT22;54550;48.838;8.828;2023-09-07T07:52:42;24.50;99.90
67750;DHT22;54550;48.838;8.828;2023-09-07T07:55:08;24.50;99.90
67750;DHT22;54550;48.838;8.828;2023-09-07T07:57:34;24.70;99.90
67750;DHT22;54550;48.838;8.828;2023-09-07T08:00:00;24.80;99.90
67750;DHT22;54550;48.838;8.828;2023-09-07T08:02:26;24.80;99.90
67750;DHT22;54550;48.838;8.828;2023-09-07T08:04:51;25.10;99.90
67750;DHT22;54550;48.838;8.828;2023-09-07T08:07:17;25.20;99.90
67750;DHT22;54550;48.838;8.828;2023-09-07T08:09:43;25.70;99.90
67750;DHT22;54550;48.838;8.828;2023-09-07T08:12:08;25.80;99.80
67750;DHT22;54550;48.838;8.828;2023-09-07T08:14:35;25.80;99.80
67750;DHT22;54550;48.838;8.828;2023-09-07T08:17:00;25.90;99.50
67750;DHT22;54550;48.838;8.828;2023-09-07T08:19:27;26.30;99.20
67750;DHT22;54550;48.838;8.828;2023-09-07T08:21:53;26.40;98.80
67750;DHT22;54550;48.838;8.828;2023-09-07T08:24:19;26.60;98.20
67750;DHT22;54550;48.838;8.828;2023-09-07T08:26:44;26.70;98.20
67750;DHT22;54550;48.838;8.828;2023-09-07T08:29:10;26.40;99.10
67750;DHT22;54550;48.838;8.828;2023-09-07T08:31:36;26.20;98.80
67750;DHT22;54550;48.838;8.828;2023-09-07T08:34:05;26.60;98.40
67750;DHT22;54550;48.838;8.828;2023-09-07T08:36:31;27.30;98.00
67750;DHT22;54550;48.838;8.828;2023-09-07T08:39:06;27.20;97.80
67750;DHT22;54550;48.838;8.828;2023-09-07T08:41:39;27.40;97.20
67750;DHT22;54550;48.838;8.828;2023-09-07T08:44:21;27.60;96.80
67750;DHT22;54550;48.838;8.828;2023-09-07T08:46:50;27.20;97.00
67750;DHT22;54550;48.838;8.828;2023-09-07T08:49:17;27.20;97.20
67750;DHT22;54550;48.838;8.828;2023-09-07T08:51:46;27.40;97.00
67750;DHT22;54550;48.838;8.828;2023-09-07T08:54:12;27.30;97.30
67750;DHT22;54550;48.838;8.828;2023-09-07T08:56:38;27.70;97.60
67750;DHT22;54550;48.838;8.828;2023-09-07T08:59:03;27.60;97.40
67750;DHT22;54550;48.838;8.828;2023-09-07T09:01:30;27.20;97.10
67750;DHT22;54550;48.838;8.828;2023-09-07T09:03:57;27.40;97.70
67750;DHT22;54550;48.838;8.828;2023-09-07T09:06:23;27.30;97.40
67750;DHT22;54550;48.838;8.828;2023-09-07T09:08:57;27.60;97.40
67750;DHT22;54550;48.838;8.828;2023-09-07T09:11:24;28.20;96.70
67750;DHT22;54550;48.838;8.828;2023-09-07T09:13:54;28.40;95.70
67750;DHT22;54550;48.838;8.828;2023-09-07T09:16:20;28.70;95.10
67750;DHT22;54550;48.838;8.828;2023-09-07T09:18:49;28.10;95.80
67750;DHT22;54550;48.838;8.828;2023-09-07T09:21:21;27.80;96.50
67750;DHT22;54550;48.838;8.828;2023-09-07T09:23:49;28.20;96.00
67750;DHT22;54550;48.838;8.828;2023-09-07T09:26:15;28.40;96.20
67750;DHT22;54550;48.838;8.828;2023-09-07T09:28:42;28.80;96.30
67750;DHT22;54550;48.838;8.828;2023-09-07T09:31:08;29.00;95.30
67750;DHT22;54550;48.838;8.828;2023-09-07T09:33:38;28.90;94.80
67750;DHT22;54550;48.838;8.828;2023-09-07T09:36:04;27.90;96.00
67750;DHT22;54550;48.838;8.828;2023-09-07T09:38:32;27.90;96.30
67750;DHT22;54550;48.838;8.828;2023-09-07T09:40:58;27.80;96.10
67750;DHT22;54550;48.838;8.828;2023-09-07T09:43:25;28.10;96.30
67750;DHT22;54550;48.838;8.828;2023-09-07T09:45:52;27.60;96.70
67750;DHT22;54550;48.838;8.828;2023-09-07T09:48:19;28.00;96.90
67750;DHT22;54550;48.838;8.828;2023-09-07T09:50:49;27.80;96.70
67750;DHT22;54550;48.838;8.828;2023-09-07T09:53:18;27.90;96.70
67750;DHT22;54550;48.838;8.828;2023-09-07T09:55:49;27.90;96.60
67750;DHT22;54550;48.838;8.828;2023-09-07T09:58:16;28.00;96.80
67750;DHT22;54550;48.838;8.828;2023-09-07T10:00:54;28.60;96.50
67750;DHT22;54550;48.838;8.828;2023-09-07T10:03:33;29.40;95.40
67750;DHT22;54550;48.838;8.828;2023-09-07T10:06:12;29.70;94.40
67750;DHT22;54550;48.838;8.828;2023-09-07T10:11:29;29.20;96.00
67750;DHT22;54550;48.838;8.828;2023-09-07T10:14:00;29.00;95.90
67750;DHT22;54550;48.838;8.828;2023-09-07T10:16:25;29.30;95.40
67750;DHT22;54550;48.838;8.828;2023-09-07T10:18:53;28.70;96.00
67750;DHT22;54550;48.838;8.828;2023-09-07T10:21:18;28.50;96.50
67750;DHT22;54550;48.838;8.828;2023-09-07T10:23:45;28.10;97.10
67750;DHT22;54550;48.838;8.828;2023-09-07T10:26:13;28.40;95.50
67750;DHT22;54550;48.838;8.828;2023-09-07T10:28:39;28.80;96.10
67750;DHT22;54550;48.838;8.828;2023-09-07T10:33:33;29.70;95.20
67750;DHT22;54550;48.838;8.828;2023-09-07T10:35:59;30.20;94.00
67750;DHT22;54550;48.838;8.828;2023-09-07T10:38:25;30.40;93.60
67750;DHT22;54550;48.838;8.828;2023-09-07T10:40:59;30.30;93.60
67750;DHT22;54550;48.838;8.828;2023-09-07T10:43:34;30.20;94.20
67750;DHT22;54550;48.838;8.828;2023-09-07T10:46:00;30.20;93.70
67750;DHT22;54550;48.838;8.828;2023-09-07T10:48:29;30.40;93.60
67750;DHT22;54550;48.838;8.828;2023-09-07T10:50:55;30.20;93.40
67750;DHT22;54550;48.838;8.828;2023-09-07T10:53:28;29.90;93.80
67750;DHT22;54550;48.838;8.828;2023-09-07T10:55:56;29.10;94.30
67750;DHT22;54550;48.838;8.828;2023-09-07T10:58:26;29.80;94.10
67750;DHT22;54550;48.838;8.828;2023-09-07T11:00:54;30.20;93.80
67750;DHT22;54550;48.838;8.828;2023-09-07T11:03:19;29.90;94.10
67750;DHT22;54550;48.838;8.828;2023-09-07T11:05:45;30.30;93.50
67750;DHT22;54550;48.838;8.828;2023-09-07T11:08:10;30.10;93.90
67750;DHT22;54550;48.838;8.828;2023-09-07T11:10:36;29.70;94.90
67750;DHT22;54550;48.838;8.828;2023-09-07T11:13:04;30.10;93.80
67750;DHT22;54550;48.838;8.828;2023-09-07T11:15:31;30.60;93.20
67750;DHT22;54550;48.838;8.828;2023-09-07T11:17:57;30.40;93.10
67750;DHT22;54550;48.838;8.828;2023-09-07T11:20:23;30.10;93.10
67750;DHT22;54550;48.838;8.828;2023-09-07T11:22:50;30.40;93.50
67750;DHT22;54550;48.838;8.828;2023-09-07T11:25:16;30.40;93.70
67750;DHT22;54550;48.838;8.828;2023-09-07T11:27:41;30.50;93.50
67750;DHT22;54550;48.838;8.828;2023-09-07T11:30:09;30.70;93.30
67750;DHT22;54550;48.838;8.828;2023-09-07T11:32:36;30.80;93.50
67750;DHT22;54550;48.838;8.828;2023-09-07T11:35:01;31.10;92.40
67750;DHT22;54550;48.838;8.828;2023-09-07T11:37:27;31.40;91.90
67750;DHT22;54550;48.838;8.828;2023-09-07T11:39:54;31.10;92.10
67750;DHT22;54550;48.838;8.828;2023-09-07T11:42:19;31.10;91.80
67750;DHT22;54550;48.838;8.828;2023-09-07T11:44:45;31.60;91.80
67750;DHT22;54550;48.838;8.828;2023-09-07T11:47:11;31.70;91.70
67750;DHT22;54550;48.838;8.828;2023-09-07T11:49:36;31.50;91.80
67750;DHT22;54550;48.838;8.828;2023-09-07T11:52:02;31.90;91.50
67750;DHT22;54550;48.838;8.828;2023-09-07T11:54:27;31.70;91.50
67750;DHT22;54550;48.838;8.828;2023-09-07T11:56:53;31.00;91.80
67750;DHT22;54550;48.838;8.828;2023-09-07T11:59:19;31.10;92.00
67750;DHT22;54550;48.838;8.828;2023-09-07T12:01:44;31.40;91.90
67750;DHT22;54550;48.838;8.828;2023-09-07T12:04:10;31.10;92.10
67750;DHT22;54550;48.838;8.828;2023-09-07T12:06:36;31.40;91.50
67750;DHT22;54550;48.838;8.828;2023-09-07T12:09:04;31.50;91.70
67750;DHT22;54550;48.838;8.828;2023-09-07T12:11:30;31.50;91.70
67750;DHT22;54550;48.838;8.828;2023-09-07T12:13:56;31.50;91.10
67750;DHT22;54550;48.838;8.828;2023-09-07T12:16:22;31.80;91.30
67750;DHT22;54550;48.838;8.828;2023-09-07T12:18:47;32.10;90.90
67750;DHT22;54550;48.838;8.828;2023-09-07T12:21:14;32.10;90.90
67750;DHT22;54550;48.838;8.828;2023-09-07T12:23:39;32.00;90.40
67750;DHT22;54550;48.838;8.828;2023-09-07T12:26:05;31.90;90.70
67750;DHT22;54550;48.838;8.828;2023-09-07T12:28:31;32.40;91.00
67750;DHT22;54550;48.838;8.828;2023-09-07T12:30:59;32.30;90.30
67750;DHT22;54550;48.838;8.828;2023-09-07T12:33:24;32.10;91.50
67750;DHT22;54550;48.838;8.828;2023-09-07T12:35:51;32.40;90.80
67750;DHT22;54550;48.838;8.828;2023-09-07T12:38:16;33.00;90.10
67750;DHT22;54550;48.838;8.828;2023-09-07T12:40:47;33.30;89.50
67750;DHT22;54550;48.838;8.828;2023-09-07T12:43:13;32.50;90.30
67750;DHT22;54550;48.838;8.828;2023-09-07T12:45:38;32.80;89.90
67750;DHT22;54550;48.838;8.828;2023-09-07T12:48:04;32.90;88.70
67750;DHT22;54550;48.838;8.828;2023-09-07T12:50:31;32.80;88.80
67750;DHT22;54550;48.838;8.828;2023-09-07T12:52:57;32.80;88.60
67750;DHT22;54550;48.838;8.828;2023-09-07T12:55:23;33.00;88.60
67750;DHT22;54550;48.838;8.828;2023-09-07T12:57:50;32.90;88.50
67750;DHT22;54550;48.838;8.828;2023-09-07T13:00:15;32.80;88.20
67750;DHT22;54550;48.838;8.828;2023-09-07T13:02:41;33.00;87.70
67750;DHT22;54550;48.838;8.828;2023-09-07T13:05:07;32.50;88.90
67750;DHT22;54550;48.838;8.828;2023-09-07T13:07:33;32.40;88.60
67750;DHT22;54550;48.838;8.828;2023-09-07T13:10:04;32.50;89.20
67750;DHT22;54550;48.838;8.828;2023-09-07T13:12:33;32.70;90.00
67750;DHT22;54550;48.838;8.828;2023-09-07T13:14:59;32.80;88.80
67750;DHT22;54550;48.838;8.828;2023-09-07T13:17:24;32.40;88.20
67750;DHT22;54550;48.838;8.828;2023-09-07T13:19:50;32.60;87.60
67750;DHT22;54550;48.838;8.828;2023-09-07T13:22:17;32.40;88.20
67750;DHT22;54550;48.838;8.828;2023-09-07T13:24:42;32.30;88.60
67750;DHT22;54550;48.838;8.828;2023-09-07T13:27:08;32.70;88.10
67750;DHT22;54550;48.838;8.828;2023-09-07T13:29:35;32.90;87.30
67750;DHT22;54550;48.838;8.828;2023-09-07T13:32:01;33.10;86.20
67750;DHT22;54550;48.838;8.828;2023-09-07T13:34:27;32.80;86.80
67750;DHT22;54550;48.838;8.828;2023-09-07T13:36:53;32.60;87.20
67750;DHT22;54550;48.838;8.828;2023-09-07T13:39:19;32.80;88.30
67750;DHT22;54550;48.838;8.828;2023-09-07T13:41:44;33.30;86.30
67750;DHT22;54550;48.838;8.828;2023-09-07T13:44:13;33.20;85.30
67750;DHT22;54550;48.838;8.828;2023-09-07T13:46:38;33.70;85.10
67750;DHT22;54550;48.838;8.828;2023-09-07T13:49:04;33.70;83.70
67750;DHT22;54550;48.838;8.828;2023-09-07T13:51:30;33.60;83.70
67750;DHT22;54550;48.838;8.828;2023-09-07T13:54:00;33.50;84.20
67750;DHT22;54550;48.838;8.828;2023-09-07T13:56:26;33.40;84.70
67750;DHT22;54550;48.838;8.828;2023-09-07T13:58:52;33.30;88.00
67750;DHT22;54550;48.838;8.828;2023-09-07T14:01:17;34.00;85.80
67750;DHT22;54550;48.838;8.828;2023-09-07T14:03:43;34.60;84.30
67750;DHT22;54550;48.838;8.828;2023-09-07T14:06:08;34.60;82.60
67750;DHT22;54550;48.838;8.828;2023-09-07T14:08:34;34.50;82.40
67750;DHT22;54550;48.838;8.828;2023-09-07T14:11:00;34.30;82.70
67750;DHT22;54550;48.838;8.828;2023-09-07T14:13:26;34.00;85.30
67750;DHT22;54550;48.838;8.828;2023-09-07T14:15:51;34.40;83.30
67750;DHT22;54550;48.838;8.828;2023-09-07T14:18:17;34.70;82.70
67750;DHT22;54550;48.838;8.828;2023-09-07T14:20:43;35.00;80.60
67750;DHT22;54550;48.838;8.828;2023-09-07T14:23:08;35.00;80.40
67750;DHT22;54550;48.838;8.828;2023-09-07T14:25:34;35.30;79.90
67750;DHT22;54550;48.838;8.828;2023-09-07T14:27:59;34.90;80.60
67750;DHT22;54550;48.838;8.828;2023-09-07T14:30:25;35.10;78.80
67750;DHT22;54550;48.838;8.828;2023-09-07T14:32:51;35.80;79.30
67750;DHT22;54550;48.838;8.828;2023-09-07T14:35:16;36.00;78.70
67750;DHT22;54550;48.838;8.828;2023-09-07T14:37:42;36.10;77.90
67750;DHT22;54550;48.838;8.828;2023-09-07T14:40:08;35.70;77.60
67750;DHT22;54550;48.838;8.828;2023-09-07T14:42:34;35.70;79.20
67750;DHT22;54550;48.838;8.828;2023-09-07T14:45:00;35.50;78.80
67750;DHT22;54550;48.838;8.828;2023-09-07T14:47:30;35.40;79.30
67750;DHT22;54550;48.838;8.828;2023-09-07T14:49:56;35.70;78.80
67750;DHT22;54550;48.838;8.828;2023-09-07T14:52:22;36.20;77.50
67750;DHT22;54550;48.838;8.828;2023-09-07T14:54:50;35.30;78.30
67750;DHT22;54550;48.838;8.828;2023-09-07T14:57:15;34.80;78.70
67750;DHT22;54550;48.838;8.828;2023-09-07T14:59:41;34.40;79.40
67750;DHT22;54550;48.838;8.828;2023-09-07T15:02:07;34.30;80.40
67750;DHT22;54550;48.838;8.828;2023-09-07T15:04:33;34.80;80.30
67750;DHT22;54550;48.838;8.828;2023-09-07T15:06:59;34.90;79.80
67750;DHT22;54550;48.838;8.828;2023-09-07T15:09:25;35.10;80.60
67750;DHT22;54550;48.838;8.828;2023-09-07T15:11:50;35.10;79.90
67750;DHT22;54550;48.838;8.828;2023-09-07T15:14:16;35.20;79.30
67750;DHT22;54550;48.838;8.828;2023-09-07T15:16:42;35.00;78.20
67750;DHT22;54550;48.838;8.828;2023-09-07T15:19:08;34.60;79.50
67750;DHT22;54550;48.838;8.828;2023-09-07T15:21:33;34.40;79.70
67750;DHT22;54550;48.838;8.828;2023-09-07T15:23:59;34.60;80.40
67750;DHT22;54550;48.838;8.828;2023-09-07T15:26:24;34.80;79.60
67750;DHT22;54550;48.838;8.828;2023-09-07T15:28:50;34.80;79.90
67750;DHT22;54550;48.838;8.828;2023-09-07T15:31:16;35.10;79.10
67750;DHT22;54550;48.838;8.828;2023-09-07T15:33:42;35.10;78.30